createdAt,value
2023-04-03T00:00:35.934Z,1.65
2023-04-03T00:03:02.564Z,3.80
2023-04-03T00:05:29.085Z,4.18
2023-04-03T00:07:55.966Z,3.63
2023-04-03T00:10:22.361Z,3.08
2023-04-03T00:12:48.857Z,4.75
2023-04-03T00:15:15.335Z,3.47
2023-04-03T00:17:42.218Z,3.20
2023-04-03T00:20:09.674Z,3.05
2023-04-03T00:22:36.130Z,3.45
2023-04-03T00:25:02.542Z,3.47
2023-04-03T00:27:29.000Z,2.90
2023-04-03T00:29:55.423Z,2.92
2023-04-03T00:32:22.153Z,3.00
2023-04-03T00:34:48.522Z,3.17
2023-04-03T00:37:15.334Z,3.05
2023-04-03T00:39:42.715Z,3.17
2023-04-03T00:42:09.109Z,3.60
2023-04-03T00:44:35.465Z,3.33
2023-04-03T00:47:04.796Z,3.53
2023-04-03T00:49:31.308Z,3.33
2023-04-03T00:51:58.713Z,3.60
2023-04-03T00:54:26.221Z,3.08
2023-04-03T00:56:55.961Z,3.28
2023-04-03T00:59:27.359Z,3.60
2023-04-03T01:01:58.515Z,3.30
2023-04-03T01:04:34.943Z,3.88
2023-04-03T01:07:07.633Z,3.25
2023-04-03T01:09:34.893Z,3.70
2023-04-03T01:12:40.730Z,3.53
2023-04-03T01:15:15.538Z,4.72
2023-04-03T01:17:45.552Z,3.53
2023-04-03T01:20:32.292Z,3.15
2023-04-03T01:23:13.352Z,3.65
2023-04-03T01:25:43.274Z,3.85
2023-04-03T01:28:14.119Z,3.97
2023-04-03T01:30:50.331Z,3.50
2023-04-03T01:33:17.680Z,3.65
2023-04-03T01:35:44.663Z,4.03
2023-04-03T01:38:11.429Z,3.55
2023-04-03T01:40:38.352Z,4.35
2023-04-03T01:43:05.282Z,3.45
2023-04-03T01:45:31.947Z,3.92
2023-04-03T01:47:58.520Z,3.42
2023-04-03T01:50:26.217Z,3.72
2023-04-03T01:52:53.145Z,4.03
2023-04-03T01:55:19.617Z,3.92
2023-04-03T01:57:46.123Z,4.03
2023-04-03T02:00:13.520Z,3.45
2023-04-03T02:02:40.186Z,3.58
2023-04-03T02:05:07.523Z,4.28
2023-04-03T02:07:33.922Z,3.72
2023-04-03T02:10:00.360Z,3.60
2023-04-03T02:12:26.916Z,3.45
2023-04-03T02:14:53.412Z,3.75
2023-04-03T02:17:20.347Z,3.85
2023-04-03T02:19:47.669Z,3.88
2023-04-03T02:22:14.069Z,3.97
2023-04-03T02:24:41.164Z,4.78
2023-04-03T02:27:07.720Z,4.57
2023-04-03T02:29:34.182Z,4.40
2023-04-03T02:32:00.818Z,4.30
2023-04-03T02:34:27.539Z,3.92
2023-04-03T02:36:54.419Z,3.78
2023-04-03T02:39:21.221Z,3.75
2023-04-03T02:41:48.106Z,4.10
2023-04-03T02:44:20.147Z,3.97
2023-04-03T02:46:46.670Z,3.92
2023-04-03T02:49:13.082Z,3.58
2023-04-03T02:51:39.732Z,3.42
2023-04-03T02:54:06.494Z,2.90
2023-04-03T02:56:35.250Z,3.53
2023-04-03T02:59:01.731Z,3.33
2023-04-03T03:01:32.365Z,3.40
2023-04-03T03:04:00.921Z,3.50
2023-04-03T03:06:27.947Z,3.75
2023-04-03T03:08:54.803Z,3.67
2023-04-03T03:11:21.840Z,3.83
2023-04-03T03:13:48.300Z,3.53
2023-04-03T03:16:14.889Z,3.60
2023-04-03T03:18:41.339Z,4.40
2023-04-03T03:21:07.831Z,3.08
2023-04-03T03:23:35.548Z,4.03
2023-04-03T03:26:05.286Z,3.67
2023-04-03T03:28:35.593Z,3.75
2023-04-03T03:31:03.420Z,3.50
2023-04-03T03:33:31.242Z,3.35
2023-04-03T03:35:57.916Z,3.83
2023-04-03T03:38:24.612Z,4.60
2023-04-03T03:40:52.632Z,4.32
2023-04-03T03:43:21.214Z,4.75
2023-04-03T03:45:53.440Z,3.80
2023-04-03T03:48:21.730Z,3.78
2023-04-03T03:50:49.312Z,3.60
2023-04-03T03:53:17.037Z,4.43
2023-04-03T03:55:44.819Z,4.10
2023-04-03T03:58:11.428Z,3.97
2023-04-03T04:00:38.238Z,4.18
2023-04-03T04:03:04.936Z,4.47
2023-04-03T04:05:32.159Z,4.20
2023-04-03T04:08:00.816Z,4.05
2023-04-03T04:10:27.476Z,4.28
2023-04-03T04:12:55.571Z,4.20
2023-04-03T04:15:26.465Z,4.63
2023-04-03T04:17:54.281Z,3.55
2023-04-03T04:20:21.579Z,3.70
2023-04-03T04:22:48.704Z,3.53
2023-04-03T04:25:16.118Z,3.90
2023-04-03T04:27:42.764Z,4.93
2023-04-03T04:30:10.665Z,3.90
2023-04-03T04:32:38.057Z,4.05
2023-04-03T04:35:05.870Z,4.05
2023-04-03T04:37:34.498Z,4.25
2023-04-03T04:40:01.449Z,4.38
2023-04-03T04:42:28.385Z,4.10
2023-04-03T04:44:54.991Z,4.18
2023-04-03T04:47:21.486Z,4.22
2023-04-03T04:49:48.424Z,4.40
2023-04-03T04:52:15.626Z,4.07
2023-04-03T04:54:42.282Z,4.57
2023-04-03T04:57:09.633Z,3.85
2023-04-03T04:59:36.060Z,4.10
2023-04-03T05:02:03.485Z,3.80
2023-04-03T05:04:30.696Z,3.55
2023-04-03T05:07:04.371Z,3.97
2023-04-03T05:09:34.005Z,4.10
2023-04-03T05:12:01.103Z,5.00
2023-04-03T05:14:32.046Z,4.75
2023-04-03T05:17:03.045Z,4.60
2023-04-03T05:19:32.177Z,4.30
2023-04-03T05:21:59.528Z,4.88
2023-04-03T05:24:27.054Z,4.53
2023-04-03T05:26:53.436Z,5.28
2023-04-03T05:29:22.768Z,4.80
2023-04-03T05:31:51.414Z,4.18
2023-04-03T05:34:18.037Z,4.15
2023-04-03T05:36:46.782Z,4.78
2023-04-03T05:39:14.877Z,4.00
2023-04-03T05:41:46.251Z,4.25
2023-04-03T05:44:13.060Z,4.05
2023-04-03T05:46:40.563Z,5.10
2023-04-03T05:49:09.412Z,5.68
2023-04-03T05:51:38.074Z,4.82
2023-04-03T05:54:31.455Z,4.50
2023-04-03T05:57:24.650Z,4.60
2023-04-03T05:59:51.393Z,4.97
2023-04-03T06:02:21.005Z,4.47
2023-04-03T06:04:49.051Z,4.85
2023-04-03T06:07:22.100Z,4.03
2023-04-03T06:09:50.922Z,4.28
2023-04-03T06:12:18.161Z,4.93
2023-04-03T06:14:47.534Z,6.13
2023-04-03T06:17:16.615Z,4.90
2023-04-03T06:19:43.215Z,5.20
2023-04-03T06:22:09.881Z,4.28
2023-04-03T06:24:36.905Z,5.88
2023-04-03T06:27:03.577Z,5.55
2023-04-03T06:29:30.613Z,5.72
2023-04-03T06:31:57.543Z,4.38
2023-04-03T06:34:23.974Z,4.22
2023-04-03T06:36:51.501Z,4.30
2023-04-03T06:39:21.976Z,4.32
2023-04-03T06:41:50.450Z,4.65
2023-04-03T06:44:17.855Z,4.97
2023-04-03T06:46:46.061Z,4.72
2023-04-03T06:49:13.398Z,5.47
2023-04-03T06:51:39.848Z,5.40
2023-04-03T06:54:07.441Z,4.80
2023-04-03T06:56:34.030Z,5.25
2023-04-03T06:59:00.654Z,4.13
2023-04-03T07:01:29.038Z,5.05
2023-04-03T07:03:56.278Z,4.45
2023-04-03T07:06:23.457Z,5.05
2023-04-03T07:08:52.669Z,4.55
2023-04-03T07:11:19.068Z,4.13
2023-04-03T07:13:45.564Z,4.47
2023-04-03T07:16:13.495Z,4.68
2023-04-03T07:18:39.954Z,5.15
2023-04-03T07:21:06.948Z,4.53
2023-04-03T07:23:33.750Z,5.50
2023-04-03T07:26:03.611Z,5.07
2023-04-03T07:28:30.646Z,5.20
2023-04-03T07:31:06.838Z,5.40
2023-04-03T07:33:34.012Z,4.97
2023-04-03T07:36:01.262Z,4.85
2023-04-03T07:38:28.080Z,4.80
2023-04-03T07:40:54.575Z,4.35
2023-04-03T07:43:22.338Z,4.75
2023-04-03T07:45:53.072Z,5.15
2023-04-03T07:48:21.578Z,4.65
2023-04-03T07:50:48.098Z,4.68
2023-04-03T07:53:15.087Z,5.65
2023-04-03T07:55:44.897Z,5.57
2023-04-03T07:58:12.356Z,4.82
2023-04-03T08:00:39.132Z,4.95
2023-04-03T08:03:06.041Z,6.13
2023-04-03T08:05:32.856Z,4.75
2023-04-03T08:07:59.285Z,4.93
2023-04-03T08:10:25.842Z,5.63
2023-04-03T08:12:52.533Z,5.00
2023-04-03T08:15:19.077Z,4.95
2023-04-03T08:17:45.574Z,4.75
2023-04-03T08:20:12.663Z,4.93
2023-04-03T08:22:39.082Z,5.65
2023-04-03T08:25:06.094Z,5.38
2023-04-03T08:27:32.504Z,5.25
2023-04-03T08:29:58.983Z,4.85
2023-04-03T08:32:25.696Z,5.35
2023-04-03T08:34:52.249Z,5.25
2023-04-03T08:37:18.812Z,5.25
2023-04-03T08:39:45.271Z,4.60
2023-04-03T08:42:20.590Z,5.25
2023-04-03T08:44:54.314Z,6.07
2023-04-03T08:47:41.561Z,5.03
2023-04-03T08:50:14.582Z,4.32
2023-04-03T08:55:25.408Z,4.85
2023-04-03T08:58:06.335Z,5.13
2023-04-03T09:00:49.777Z,5.03
2023-04-03T09:03:19.260Z,5.22
2023-04-03T09:05:58.367Z,5.07
2023-04-03T09:08:27.755Z,4.18
2023-04-03T09:11:21.533Z,5.13
2023-04-03T09:13:57.727Z,4.63
2023-04-03T09:16:27.286Z,5.55
2023-04-03T09:19:03.211Z,4.75
2023-04-03T09:21:37.955Z,4.32
2023-04-03T09:24:08.427Z,4.65
2023-04-03T09:26:41.483Z,4.97
2023-04-03T09:29:09.206Z,4.38
2023-04-03T09:31:42.427Z,4.60
2023-04-03T09:34:32.550Z,4.90
2023-04-03T09:37:06.517Z,5.82
2023-04-03T09:39:50.523Z,4.18
2023-04-03T09:42:23.346Z,4.93
2023-04-03T09:45:07.646Z,4.38
2023-04-03T09:47:37.041Z,4.85
2023-04-03T09:50:15.513Z,4.78
2023-04-03T09:52:44.863Z,4.20
2023-04-03T09:55:16.180Z,4.40
2023-04-03T09:57:42.723Z,4.80
2023-04-03T10:00:41.287Z,5.93
2023-04-03T10:03:27.319Z,5.22
2023-04-03T10:05:56.058Z,5.32
2023-04-03T10:08:29.326Z,4.55
2023-04-03T10:11:13.171Z,5.10
2023-04-03T10:13:57.448Z,4.95
2023-04-03T10:16:51.228Z,5.38
2023-04-03T10:19:37.584Z,4.82
2023-04-03T10:22:25.750Z,5.20
2023-04-03T10:25:23.907Z,5.40
2023-04-03T10:28:01.056Z,5.07
2023-04-03T10:30:41.727Z,4.57
2023-04-03T10:33:27.397Z,4.95
2023-04-03T10:35:59.736Z,5.05
2023-04-03T10:39:00.646Z,4.78
2023-04-03T10:42:16.006Z,4.20
2023-04-03T10:45:06.451Z,4.75
2023-04-03T10:48:02.367Z,4.90
2023-04-03T10:50:48.594Z,5.03
2023-04-03T10:53:36.383Z,4.72
2023-04-03T10:56:30.847Z,6.00
2023-04-03T10:59:05.977Z,5.10
2023-04-03T11:01:36.283Z,4.72
2023-04-03T11:04:06.977Z,5.40
2023-04-03T11:07:08.407Z,4.95
2023-04-03T11:09:38.477Z,4.70
2023-04-03T11:12:34.469Z,4.60
2023-04-03T11:15:04.047Z,5.35
2023-04-03T11:17:47.552Z,5.78
2023-04-03T11:20:20.316Z,4.07
2023-04-03T11:22:54.027Z,5.00
2023-04-03T11:25:25.349Z,4.97
2023-04-03T11:27:58.617Z,4.65
2023-04-03T11:30:25.626Z,4.50
2023-04-03T11:33:32.412Z,5.45
2023-04-03T11:36:15.539Z,4.78
2023-04-03T11:38:56.298Z,4.75
2023-04-03T11:41:31.868Z,4.65
2023-04-03T11:44:00.238Z,4.63
2023-04-03T11:46:50.255Z,4.53
2023-04-03T11:49:51.853Z,4.97
2023-04-03T11:52:43.734Z,4.65
2023-04-03T11:55:22.744Z,5.30
2023-04-03T11:57:58.425Z,4.80
2023-04-03T12:00:51.803Z,5.00
2023-04-03T12:03:30.828Z,4.68
2023-04-03T12:06:06.924Z,4.45
2023-04-03T12:08:33.283Z,4.20
2023-04-03T12:11:15.484Z,4.75
2023-04-03T12:13:51.039Z,4.35
2023-04-03T12:16:22.350Z,4.70
2023-04-03T12:19:10.610Z,4.85
2023-04-03T12:21:37.068Z,4.78
2023-04-03T12:24:09.584Z,4.53
2023-04-03T12:26:52.136Z,4.65
2023-04-03T12:29:24.597Z,4.55
2023-04-03T12:32:28.883Z,4.78
2023-04-03T12:35:20.262Z,4.78
2023-04-03T12:38:26.115Z,4.55
2023-04-03T12:41:31.831Z,4.78
2023-04-03T12:44:05.140Z,4.82
2023-04-03T12:46:46.799Z,5.25
2023-04-03T12:49:36.433Z,5.85
2023-04-03T12:52:07.013Z,4.70
2023-04-03T12:54:37.346Z,4.70
2023-04-03T12:57:15.770Z,5.00
2023-04-03T12:59:44.613Z,4.78
2023-04-03T13:02:29.873Z,4.70
2023-04-03T13:05:07.274Z,4.85
2023-04-03T13:07:39.769Z,4.72
2023-04-03T13:10:09.295Z,4.40
2023-04-03T13:12:46.871Z,4.60
2023-04-03T13:15:18.877Z,4.65
2023-04-03T13:17:45.960Z,4.80
2023-04-03T13:20:20.863Z,4.00
2023-04-03T13:22:58.066Z,5.22
2023-04-03T13:25:28.247Z,3.95
2023-04-03T13:28:10.116Z,3.92
2023-04-03T13:30:41.913Z,4.45
2023-04-03T13:33:23.675Z,5.20
2023-04-03T13:36:02.782Z,4.60
2023-04-03T13:38:33.862Z,4.35
2023-04-03T13:41:22.597Z,5.22
2023-04-03T13:43:49.971Z,4.22
2023-04-03T13:46:17.420Z,4.38
2023-04-03T13:48:50.359Z,5.20
2023-04-03T13:51:16.733Z,5.20
2023-04-03T13:53:45.300Z,4.57
2023-04-03T13:56:24.569Z,4.03
2023-04-03T13:58:59.792Z,4.93
2023-04-03T14:01:33.473Z,4.00
2023-04-03T14:04:11.472Z,5.40
2023-04-03T14:06:38.486Z,4.78
2023-04-03T14:09:04.887Z,5.25
2023-04-03T14:11:32.058Z,4.30
2023-04-03T14:14:05.707Z,4.38
2023-04-03T14:16:37.954Z,4.03
2023-04-03T14:19:04.746Z,4.88
2023-04-03T14:21:31.178Z,4.40
2023-04-03T14:23:57.795Z,5.55
2023-04-03T14:26:27.392Z,4.53
2023-04-03T14:28:56.353Z,4.93
2023-04-03T14:31:23.242Z,4.53
2023-04-03T14:33:49.942Z,3.60
2023-04-03T14:36:19.392Z,4.60
2023-04-03T14:38:46.671Z,4.30
2023-04-03T14:41:16.901Z,4.43
2023-04-03T14:43:44.706Z,4.93
2023-04-03T14:46:38.689Z,4.82
2023-04-03T14:49:21.562Z,3.75
2023-04-03T14:51:48.372Z,3.70
2023-04-03T14:54:18.056Z,4.53
2023-04-03T14:56:45.502Z,3.97
2023-04-03T14:59:13.702Z,5.10
2023-04-03T15:01:40.335Z,4.78
2023-04-03T15:04:18.730Z,4.10
2023-04-03T15:06:46.274Z,3.03
2023-04-03T15:09:22.079Z,4.75
2023-04-03T15:11:50.238Z,3.60
2023-04-03T15:14:24.512Z,3.58
2023-04-03T15:17:03.081Z,4.95
2023-04-03T15:19:29.501Z,3.33
2023-04-03T15:21:56.013Z,3.85
2023-04-03T15:24:22.564Z,3.20
2023-04-03T15:26:49.104Z,3.40
2023-04-03T15:29:15.580Z,3.45
2023-04-03T15:31:42.032Z,3.00
2023-04-03T15:34:08.428Z,3.15
2023-04-03T15:36:35.142Z,3.55
2023-04-03T15:39:01.918Z,3.53
2023-04-03T15:41:28.368Z,3.53
2023-04-03T15:43:54.737Z,4.82
2023-04-03T15:46:21.304Z,4.15
2023-04-03T15:48:47.729Z,3.70
2023-04-03T15:51:14.184Z,3.17
2023-04-03T15:53:40.593Z,3.80
2023-04-03T15:56:09.017Z,3.78
2023-04-03T15:58:35.580Z,3.90
2023-04-03T16:01:02.509Z,4.07
2023-04-03T16:03:29.048Z,4.38
2023-04-03T16:05:55.669Z,4.00
2023-04-03T16:08:22.136Z,3.70
2023-04-03T16:10:48.667Z,3.55
2023-04-03T16:13:16.025Z,5.43
2023-04-03T16:15:42.914Z,3.58
2023-04-03T16:18:10.192Z,3.20
2023-04-03T16:20:37.028Z,3.42
2023-04-03T16:23:03.757Z,3.08
2023-04-03T16:25:31.827Z,3.70
2023-04-03T16:27:58.275Z,2.90
2023-04-03T16:30:24.796Z,2.92
2023-04-03T16:32:51.465Z,3.65
2023-04-03T16:35:18.114Z,3.05
2023-04-03T16:37:44.545Z,3.50
2023-04-03T16:40:12.613Z,3.13
2023-04-03T16:42:39.152Z,3.55
2023-04-03T16:45:07.056Z,3.55
2023-04-03T16:47:33.935Z,3.28
2023-04-03T16:50:00.763Z,2.83
2023-04-03T16:52:27.428Z,3.65
2023-04-03T16:54:56.466Z,3.22
2023-04-03T16:57:25.508Z,3.42
2023-04-03T16:59:53.143Z,3.45
2023-04-03T17:02:20.499Z,3.30
2023-04-03T17:04:46.964Z,3.90
2023-04-03T17:07:13.317Z,3.33
2023-04-03T17:09:39.764Z,3.30
2023-04-03T17:12:06.454Z,3.50
2023-04-03T17:14:32.897Z,3.35
2023-04-03T17:16:59.441Z,3.88
2023-04-03T17:19:26.100Z,4.10
2023-04-03T17:21:52.857Z,3.35
2023-04-03T17:24:19.357Z,3.75
2023-04-03T17:26:45.694Z,3.83
2023-04-03T17:29:12.148Z,3.15
2023-04-03T17:31:38.631Z,3.22
2023-04-03T17:34:05.443Z,3.78
2023-04-03T17:36:33.554Z,3.20
2023-04-03T17:39:00.691Z,3.63
2023-04-03T17:41:27.296Z,4.82
2023-04-03T17:43:56.773Z,3.53
2023-04-03T17:46:25.087Z,3.70
2023-04-03T17:48:52.425Z,3.80
2023-04-03T17:51:21.291Z,3.47
2023-04-03T17:53:48.288Z,3.75
2023-04-03T17:56:22.638Z,4.30
2023-04-03T17:58:50.333Z,3.45
2023-04-03T18:01:28.710Z,3.92
2023-04-03T18:03:57.976Z,4.10
2023-04-03T18:06:28.732Z,3.70
2023-04-03T18:08:58.783Z,3.40
2023-04-03T18:11:28.106Z,3.50
2023-04-03T18:14:00.248Z,3.72
2023-04-03T18:16:28.439Z,3.75
2023-04-03T18:19:11.705Z,3.55
2023-04-03T18:21:41.901Z,3.03
2023-04-03T18:24:13.146Z,3.35
2023-04-03T18:26:43.568Z,3.72
2023-04-03T18:29:11.899Z,3.00
2023-04-03T18:31:41.827Z,3.60
2023-04-03T18:34:08.266Z,3.67
2023-04-03T18:36:34.759Z,3.15
2023-04-03T18:39:01.408Z,3.88
2023-04-03T18:41:33.539Z,3.80
2023-04-03T18:44:03.788Z,4.30
2023-04-03T18:46:32.138Z,4.28
2023-04-03T18:48:59.562Z,4.40
2023-04-03T18:51:26.447Z,4.57
2023-04-03T18:53:53.161Z,3.75
2023-04-03T18:56:19.660Z,4.75
2023-04-03T18:58:46.222Z,3.88
2023-04-03T19:01:14.149Z,3.72
2023-04-03T19:03:41.089Z,3.72
2023-04-03T19:06:07.841Z,3.83
2023-04-03T19:08:35.164Z,4.35
2023-04-03T19:11:01.719Z,3.88
2023-04-03T19:13:28.273Z,3.85
2023-04-03T19:15:58.690Z,3.83
2023-04-03T20:01:00.622Z,3.60
2023-04-03T20:03:27.078Z,4.25
2023-04-03T20:05:57.689Z,3.85
2023-04-03T20:08:26.191Z,3.28
2023-04-03T20:10:52.586Z,4.15
2023-04-03T20:13:18.969Z,3.80
2023-04-03T20:15:45.587Z,3.58
2023-04-03T20:18:18.038Z,3.65
2023-04-03T20:20:51.930Z,4.28
2023-04-03T20:23:18.634Z,3.85
2023-04-03T20:25:57.497Z,4.25
2023-04-03T20:28:33.603Z,3.97
2023-04-03T20:31:01.982Z,3.75
2023-04-03T20:33:29.941Z,3.95
2023-04-03T20:35:57.938Z,4.10
2023-04-03T20:38:25.156Z,4.15
2023-04-03T20:40:52.114Z,4.78
2023-04-03T20:43:19.313Z,3.72
2023-04-03T20:45:45.997Z,4.13
2023-04-03T20:48:13.100Z,3.83
2023-04-03T20:50:41.084Z,3.83
2023-04-03T20:53:08.079Z,4.10
2023-04-03T20:55:34.649Z,4.00
2023-04-03T20:58:01.784Z,4.07
2023-04-03T21:00:31.515Z,4.65
2023-04-03T21:02:59.470Z,3.90
2023-04-03T21:05:28.509Z,4.72
2023-04-03T21:08:33.243Z,4.18
2023-04-03T21:11:37.478Z,4.40
2023-04-03T21:14:42.356Z,5.47
2023-04-03T21:17:08.756Z,4.80
2023-04-03T21:19:40.037Z,4.05
2023-04-03T21:22:06.563Z,3.95
2023-04-03T21:24:33.070Z,4.60
2023-04-03T21:26:59.520Z,4.40
2023-04-03T21:29:26.013Z,4.43
2023-04-03T21:31:57.620Z,4.18
2023-04-03T21:34:27.530Z,4.30
2023-04-03T21:37:02.317Z,4.20
2023-04-03T21:39:29.329Z,4.97
2023-04-03T21:41:55.942Z,4.40
2023-04-03T21:44:22.877Z,4.05
2023-04-03T21:46:54.170Z,4.13
2023-04-03T21:49:25.030Z,4.63
2023-04-03T21:51:52.113Z,4.35
2023-04-03T21:54:19.474Z,5.03
2023-04-03T21:56:47.809Z,4.25
2023-04-03T21:59:14.475Z,4.35
2023-04-03T22:01:41.346Z,4.68
2023-04-03T22:04:07.750Z,3.92
2023-04-03T22:06:34.163Z,4.55
2023-04-03T22:09:00.549Z,4.15
2023-04-03T22:11:27.058Z,3.95
2023-04-03T22:13:55.286Z,4.03
2023-04-03T22:16:23.155Z,5.00
2023-04-03T22:18:51.920Z,4.03
2023-04-03T22:21:18.754Z,3.85
2023-04-03T22:23:45.268Z,4.25
2023-04-03T22:26:12.988Z,3.97
2023-04-03T22:28:44.634Z,4.88
2023-04-03T22:31:14.133Z,3.75
2023-04-03T22:33:42.307Z,3.58
2023-04-03T22:36:10.599Z,4.35
2023-04-03T22:38:38.824Z,4.85
2023-04-03T22:41:07.113Z,4.10
2023-04-03T22:43:36.099Z,5.30
2023-04-03T22:46:04.160Z,3.65
2023-04-03T22:48:30.977Z,3.92
2023-04-03T22:50:57.710Z,4.45
2023-04-03T22:53:24.153Z,4.35
2023-04-03T22:55:57.621Z,5.05
2023-04-03T22:58:26.303Z,3.90
2023-04-03T23:01:04.114Z,3.55
2023-04-03T23:03:30.680Z,4.00
2023-04-03T23:05:57.332Z,4.28
2023-04-03T23:08:23.807Z,4.40
2023-04-03T23:10:54.200Z,4.25
2023-04-03T23:13:20.604Z,4.28
2023-04-03T23:15:59.335Z,3.65
2023-04-03T23:18:26.931Z,4.45
2023-04-03T23:20:54.713Z,3.97
2023-04-03T23:23:23.327Z,4.13
2023-04-03T23:25:58.569Z,4.00
2023-04-03T23:28:25.803Z,4.15
2023-04-03T23:31:02.856Z,4.18
2023-04-03T23:33:31.137Z,3.72
2023-04-03T23:35:58.553Z,4.65
2023-04-03T23:38:25.568Z,4.10
2023-04-03T23:40:52.075Z,4.70
2023-04-03T23:43:18.597Z,4.18
2023-04-03T23:45:45.075Z,4.20
2023-04-03T23:48:11.542Z,4.13
2023-04-03T23:50:38.334Z,3.97
2023-04-03T23:53:05.040Z,3.80
2023-04-03T23:55:31.602Z,4.40
2023-04-03T23:57:58.121Z,4.55
